Time;durP1;ratioP1;P1;durP2;ratioP2;P2;SDS_P1;SDS_P2;PMS_P1;PMS_P2;Temp;Humidity;BMP_temperature;BMP_pressure;BME280_temperature;BME280_humidity;BME280_pressure;Samples;Min_cycle;Max_cycle;Signal;HPM_P1;HPM_P2
2023/10/14 00:00:24;;;;;;;;;;;;;;;13.88;100.00;98282.41;136529;1278;22517;-79
2023/10/14 00:03:42;;;;;;;;;;;;;;;13.81;100.00;98282.27;136977;1278;22542;-80
2023/10/14 00:06:45;;;;;;;;;;;;;;;13.79;100.00;98279.84;136500;1275;22480;-80
2023/10/14 00:09:51;;;;;;;;;;;;;;;13.72;100.00;98273.62;136453;1278;22509;-81
2023/10/14 00:12:55;;;;;;;;;;;;;;;13.66;100.00;98273.33;136585;1278;22613;-81
2023/10/14 00:16:01;;;;;;;;;;;;;;;13.59;100.00;98269.02;136727;1278;22627;-81
2023/10/14 00:19:05;;;;;;;;;;;;;;;13.56;100.00;98262.58;136351;1278;22508;-82
2023/10/14 00:22:07;;;;;;;;;;;;;;;13.55;100.00;98263.81;136284;1278;22528;-81
2023/10/14 00:25:18;;;;;;;;;;;;;;;13.57;100.00;98259.08;136900;1278;22507;-81
2023/10/14 00:28:21;;;;;;;;;;;;;;;13.60;100.00;98254.67;136467;1278;22509;-80
2023/10/14 00:31:23;;;;;;;;;;;;;;;13.61;100.00;98248.02;136412;1278;22543;-80
2023/10/14 00:34:25;;;;;;;;;;;;;;;13.61;100.00;98243.48;136761;1278;22544;-81
2023/10/14 00:37:27;;;;;;;;;;;;;;;13.62;100.00;98234.55;136481;1278;23038;-81
2023/10/14 00:40:28;;;;;;;;;;;;;;;13.64;100.00;98231.39;136492;1278;22500;-81
2023/10/14 00:43:29;;;;;;;;;;;;;;;13.68;100.00;98225.39;136760;1278;22554;-80
2023/10/14 00:46:31;;;;;;;;;;;;;;;13.74;100.00;98222.02;136648;1278;22518;-81
2023/10/14 00:49:34;;;;;;;;;;;;;;;13.79;100.00;98212.86;136209;1278;22530;-80
2023/10/14 00:52:36;;;;;;;;;;;;;;;13.84;100.00;98215.08;136330;1278;22576;-80
2023/10/14 00:55:46;;;;;;;;;;;;;;;13.86;100.00;98208.59;136519;1278;22550;-82
2023/10/14 00:58:52;;;;;;;;;;;;;;;13.86;100.00;98208.25;136393;1278;22518;-81
2023/10/14 01:02:01;;;;;;;;;;;;;;;13.88;100.00;98204.92;136422;1278;22585;-80
2023/10/14 01:05:07;;;;;;;;;;;;;;;13.90;100.00;98201.92;136987;1278;22505;-80
2023/10/14 01:08:11;;;;;;;;;;;;;;;13.88;100.00;98191.98;136434;1278;22559;-81
2023/10/14 01:11:16;;;;;;;;;;;;;;;13.83;100.00;98186.06;136414;1278;22499;-81
2023/10/14 01:14:23;;;;;;;;;;;;;;;13.76;100.00;98185.61;136656;1278;22567;-80
2023/10/14 01:17:27;;;;;;;;;;;;;;;13.70;100.00;98182.89;136743;1278;22549;-81
2023/10/14 01:20:37;;;;;;;;;;;;;;;13.65;100.00;98179.63;136446;1278;22547;-81
2023/10/14 01:23:44;;;;;;;;;;;;;;;13.58;100.00;98174.98;136410;1278;22592;-81
2023/10/14 01:26:52;;;;;;;;;;;;;;;13.44;100.00;98171.46;136760;1278;22527;-81
2023/10/14 01:29:54;;;;;;;;;;;;;;;13.29;100.00;98163.39;136473;1278;22497;-81
2023/10/14 01:33:08;;;;;;;;;;;;;;;13.19;100.00;98157.89;136409;1278;22506;-81
2023/10/14 01:36:12;;;;;;;;;;;;;;;13.09;100.00;98152.02;136733;1278;24884;-82
2023/10/14 01:39:25;;;;;;;;;;;;;;;13.02;100.00;98150.52;136569;1278;22501;-81
2023/10/14 01:42:30;;;;;;;;;;;;;;;12.98;100.00;98148.60;136439;1278;22503;-81
2023/10/14 01:45:31;;;;;;;;;;;;;;;12.92;100.00;98139.74;136448;1278;22499;-81
2023/10/14 01:48:33;;;;;;;;;;;;;;;12.82;100.00;98136.52;136881;1278;23298;-82
2023/10/14 01:51:34;;;;;;;;;;;;;;;12.70;100.00;98129.98;136437;1278;22626;-82
2023/10/14 01:54:39;;;;;;;;;;;;;;;12.64;100.00;98127.92;136338;1278;22548;-83
2023/10/14 01:57:42;;;;;;;;;;;;;;;12.59;100.00;98124.84;136891;1278;22528;-82
2023/10/14 02:00:46;;;;;;;;;;;;;;;12.50;100.00;98119.84;136474;1278;22580;-82
2023/10/14 02:03:48;;;;;;;;;;;;;;;12.45;100.00;98113.23;136396;1267;22572;-82
2023/10/14 02:07:10;;;;;;;;;;;;;;;12.42;100.00;98108.03;136568;1278;22631;-81
2023/10/14 02:10:14;;;;;;;;;;;;;;;12.34;100.00;98097.44;136847;1278;22573;-82
2023/10/14 02:13:16;;;;;;;;;;;;;;;12.33;100.00;98088.56;136458;1275;22486;-82
2023/10/14 02:16:18;;;;;;;;;;;;;;;12.35;100.00;98078.24;136301;1278;22439;-81
2023/10/14 02:19:36;;;;;;;;;;;;;;;12.37;100.00;98080.32;136802;1278;22552;-81
2023/10/14 02:22:38;;;;;;;;;;;;;;;12.38;100.00;98077.70;136516;1278;23007;-82
2023/10/14 02:25:42;;;;;;;;;;;;;;;12.36;100.00;98077.19;136324;1278;22542;-82
2023/10/14 02:28:45;;;;;;;;;;;;;;;12.30;100.00;98075.49;136571;1278;22512;-82
2023/10/14 02:31:48;;;;;;;;;;;;;;;12.20;100.00;98071.55;136526;1278;22505;-81
2023/10/14 02:34:50;;;;;;;;;;;;;;;12.14;100.00;98071.23;136377;1278;22983;-81
2023/10/14 02:37:54;;;;;;;;;;;;;;;12.08;100.00;98068.28;136347;1278;22551;-81
2023/10/14 02:40:56;;;;;;;;;;;;;;;12.05;100.00;98069.52;136755;1278;22502;-82
2023/10/14 02:44:18;;;;;;;;;;;;;;;12.04;100.00;98069.02;136392;1278;22571;-81
2023/10/14 02:47:26;;;;;;;;;;;;;;;12.02;100.00;98072.15;136284;1278;22550;-81
2023/10/14 02:50:28;;;;;;;;;;;;;;;11.97;100.00;98067.30;137011;1278;22498;-83
2023/10/14 02:53:30;;;;;;;;;;;;;;;11.90;100.00;98065.96;136461;1272;22500;-81
2023/10/14 02:56:46;;;;;;;;;;;;;;;11.84;100.00;98064.08;136313;1278;22518;-81
2023/10/14 02:59:48;;;;;;;;;;;;;;;11.79;100.00;98058.00;136591;1278;25312;-82
2023/10/14 03:02:54;;;;;;;;;;;;;;;11.77;100.00;98057.30;136726;1278;22498;-82
2023/10/14 03:06:06;;;;;;;;;;;;;;;11.76;100.00;98049.96;136348;1278;22503;-82
2023/10/14 03:09:09;;;;;;;;;;;;;;;11.77;100.00;98047.88;136150;1278;22547;-81
2023/10/14 03:12:13;;;;;;;;;;;;;;;11.79;100.00;98044.41;136777;1278;22510;-81
2023/10/14 03:15:19;;;;;;;;;;;;;;;11.78;100.00;98041.97;136402;1278;22510;-81
2023/10/14 03:18:37;;;;;;;;;;;;;;;11.72;100.00;98039.52;136471;1278;22944;-83
2023/10/14 03:21:53;;;;;;;;;;;;;;;11.72;100.00;98037.79;136715;1275;22579;-81
2023/10/14 03:25:09;;;;;;;;;;;;;;;11.71;100.00;98029.43;136250;1278;23749;-81
2023/10/14 03:28:14;;;;;;;;;;;;;;;11.64;100.00;98025.11;136237;1278;22555;-80
2023/10/14 03:31:19;;;;;;;;;;;;;;;11.60;100.00;98022.17;136933;1278;22927;-82
2023/10/14 03:34:43;;;;;;;;;;;;;;;11.57;100.00;98010.16;136337;1268;22541;-81
2023/10/14 03:37:53;;;;;;;;;;;;;;;11.52;100.00;98005.14;136245;1277;22524;-81
2023/10/14 03:41:03;;;;;;;;;;;;;;;11.55;100.00;97992.06;136955;1277;22480;-81
2023/10/14 03:44:09;;;;;;;;;;;;;;;11.63;100.00;97992.36;136092;1280;22563;-81
2023/10/14 03:47:16;;;;;;;;;;;;;;;11.61;100.00;97984.35;136143;1280;22563;-81
2023/10/14 03:50:38;;;;;;;;;;;;;;;11.55;100.00;97977.42;136211;1280;22947;-82
2023/10/14 03:53:52;;;;;;;;;;;;;;;11.56;100.00;97969.58;136122;1280;22539;-82
2023/10/14 03:57:18;;;;;;;;;;;;;;;11.61;100.00;97961.70;136096;1280;22545;-81
2023/10/14 04:00:24;;;;;;;;;;;;;;;11.65;100.00;97951.91;136462;1280;22660;-81
2023/10/14 04:03:39;;;;;;;;;;;;;;;11.69;100.00;97956.06;136385;1277;22564;-81
2023/10/14 04:06:41;;;;;;;;;;;;;;;11.74;100.00;97954.81;136309;1277;22538;-81
2023/10/14 04:09:44;;;;;;;;;;;;;;;11.78;100.00;97952.20;137018;1277;22561;-81
2023/10/14 04:12:53;;;;;;;;;;;;;;;11.84;100.00;97952.16;136676;1277;22533;-81
2023/10/14 04:15:58;;;;;;;;;;;;;;;11.86;100.00;97950.92;136491;1277;22562;-81
2023/10/14 04:19:03;;;;;;;;;;;;;;;11.87;100.00;97948.30;136581;1277;22514;-81
2023/10/14 04:22:25;;;;;;;;;;;;;;;11.87;100.00;97954.40;136329;1278;23027;-81
2023/10/14 04:29:21;;;;;;;;;;;;;;;11.84;100.00;97958.61;136239;1277;22554;-81
2023/10/14 04:32:27;;;;;;;;;;;;;;;11.73;100.00;97953.08;136970;1278;22550;-81
2023/10/14 04:35:32;;;;;;;;;;;;;;;11.60;100.00;97946.54;136558;1277;22544;-84
2023/10/14 04:39:07;;;;;;;;;;;;;;;11.53;100.00;97941.36;136206;1278;22547;-80
2023/10/14 04:42:36;;;;;;;;;;;;;;;11.40;100.00;97933.94;137271;1251;22518;-80
2023/10/14 04:46:13;;;;;;;;;;;;;;;11.25;100.00;97928.26;137042;1250;22524;-79
2023/10/14 04:49:16;;;;;;;;;;;;;;;11.17;100.00;97936.83;137074;1277;22575;-80
2023/10/14 04:52:19;;;;;;;;;;;;;;;11.15;100.00;97935.80;136701;1277;22527;-81
2023/10/14 04:55:32;;;;;;;;;;;;;;;11.08;100.00;97938.62;136863;1271;22471;-81
2023/10/14 04:58:34;;;;;;;;;;;;;;;11.04;100.00;97939.33;136916;1277;22500;-79
2023/10/14 05:01:35;;;;;;;;;;;;;;;10.99;100.00;97941.61;136795;1277;22540;-80
2023/10/14 05:04:37;;;;;;;;;;;;;;;10.97;100.00;97944.06;136930;1277;22537;-79
2023/10/14 05:07:38;;;;;;;;;;;;;;;10.94;100.00;97950.34;137082;1277;22479;-80
2023/10/14 05:10:42;;;;;;;;;;;;;;;10.94;100.00;97950.87;136698;1277;22505;-80
2023/10/14 05:13:44;;;;;;;;;;;;;;;10.93;100.00;97948.78;136704;1277;22536;-79
2023/10/14 05:16:53;;;;;;;;;;;;;;;10.88;100.00;97948.63;137148;1277;22389;-80
2023/10/14 05:19:57;;;;;;;;;;;;;;;10.87;100.00;97944.28;136804;1277;22545;-80
2023/10/14 05:22:59;;;;;;;;;;;;;;;10.91;100.00;97943.04;136712;1273;22554;-79
2023/10/14 05:26:06;;;;;;;;;;;;;;;10.97;100.00;97942.50;136912;1277;26134;-79
2023/10/14 05:29:16;;;;;;;;;;;;;;;11.07;100.00;97949.08;136748;1277;22559;-79
2023/10/14 05:32:23;;;;;;;;;;;;;;;11.19;100.00;97951.45;136404;1277;23020;-79
2023/10/14 05:35:25;;;;;;;;;;;;;;;11.30;100.00;97952.98;136571;1277;23023;-79
2023/10/14 05:38:26;;;;;;;;;;;;;;;11.39;100.00;97957.64;137188;1266;22317;-79
2023/10/14 05:41:27;;;;;;;;;;;;;;;11.58;100.00;97966.59;136445;1277;22519;-79
2023/10/14 05:44:28;;;;;;;;;;;;;;;11.80;100.00;97964.38;136333;1277;23422;-79
2023/10/14 05:47:29;;;;;;;;;;;;;;;12.08;100.00;97961.57;137138;1277;22502;-79
2023/10/14 05:50:31;;;;;;;;;;;;;;;12.43;100.00;97962.84;136392;1277;22958;-80
2023/10/14 05:53:32;;;;;;;;;;;;;;;12.82;100.00;97958.94;136391;1277;22505;-80
2023/10/14 05:56:34;;;;;;;;;;;;;;;13.25;100.00;97957.26;136846;1277;22525;-81
2023/10/14 05:59:35;;;;;;;;;;;;;;;13.66;100.00;97954.61;136741;1277;22519;-81
2023/10/14 06:02:38;;;;;;;;;;;;;;;14.10;100.00;97951.84;136719;1277;22509;-80
2023/10/14 06:05:39;;;;;;;;;;;;;;;14.50;100.00;97946.46;136922;1277;22530;-78
2023/10/14 06:08:41;;;;;;;;;;;;;;;14.84;100.00;97945.52;136805;1277;22506;-79
2023/10/14 06:11:42;;;;;;;;;;;;;;;15.18;100.00;97941.48;136719;1277;22520;-79
2023/10/14 06:14:43;;;;;;;;;;;;;;;15.50;100.00;97939.40;136460;1277;25228;-78
2023/10/14 06:17:44;;;;;;;;;;;;;;;15.80;100.00;97944.91;137183;1277;22394;-79
2023/10/14 06:20:45;;;;;;;;;;;;;;;16.10;100.00;97960.52;136933;1277;22481;-80
2023/10/14 06:23:47;;;;;;;;;;;;;;;16.37;100.00;97965.45;136717;1277;23110;-79
2023/10/14 06:26:48;;;;;;;;;;;;;;;16.59;100.00;97965.80;137156;1277;22401;-79
2023/10/14 06:29:49;;;;;;;;;;;;;;;16.80;100.00;97957.88;136266;1277;22507;-80
2023/10/14 06:32:52;;;;;;;;;;;;;;;16.99;100.00;97947.00;136729;1277;22519;-79
2023/10/14 06:35:53;;;;;;;;;;;;;;;17.17;100.00;97939.27;136980;1277;22559;-79
2023/10/14 06:39:12;;;;;;;;;;;;;;;17.38;100.00;97939.57;136876;1277;22503;-80
2023/10/14 06:42:17;;;;;;;;;;;;;;;17.64;100.00;97937.02;136601;1277;22526;-80
2023/10/14 06:45:21;;;;;;;;;;;;;;;17.88;100.00;97938.94;136743;1277;24288;-80
2023/10/14 06:48:22;;;;;;;;;;;;;;;18.04;100.00;97947.58;137119;1272;23444;-79
2023/10/14 06:51:23;;;;;;;;;;;;;;;18.19;100.00;97941.12;136747;1277;22495;-81
2023/10/14 06:54:25;;;;;;;;;;;;;;;18.35;100.00;97953.80;136811;1277;24212;-80
2023/10/14 06:57:27;;;;;;;;;;;;;;;18.49;100.00;97951.58;137161;1277;22401;-80
2023/10/14 07:00:29;;;;;;;;;;;;;;;18.62;100.00;97954.64;137161;1277;22352;-80
2023/10/14 07:03:31;;;;;;;;;;;;;;;18.76;100.00;97954.35;136875;1277;22502;-81
2023/10/14 07:06:32;;;;;;;;;;;;;;;18.88;100.00;97943.55;137059;1277;22518;-79
2023/10/14 07:09:33;;;;;;;;;;;;;;;19.00;100.00;97942.04;136564;1277;22525;-80
2023/10/14 07:12:37;;;;;;;;;;;;;;;19.12;100.00;97943.04;137148;1277;22351;-80
2023/10/14 07:15:38;;;;;;;;;;;;;;;19.23;100.00;97941.40;137162;1277;22442;-80
2023/10/14 07:18:40;;;;;;;;;;;;;;;19.34;100.00;97928.46;137166;1277;22821;-80
2023/10/14 07:21:41;;;;;;;;;;;;;;;19.46;100.00;97923.44;136680;1277;22527;-80
2023/10/14 07:24:42;;;;;;;;;;;;;;;19.57;100.00;97918.77;136324;1277;24524;-79
2023/10/14 07:27:43;;;;;;;;;;;;;;;19.68;100.00;97911.30;137115;1277;22491;-80
2023/10/14 07:30:46;;;;;;;;;;;;;;;19.80;100.00;97917.88;136499;1277;22503;-80
2023/10/14 07:33:47;;;;;;;;;;;;;;;19.89;100.00;97923.17;135891;1277;24174;-79
2023/10/14 07:36:50;;;;;;;;;;;;;;;19.99;100.00;97920.48;136400;1277;22572;-80
2023/10/14 07:39:52;;;;;;;;;;;;;;;20.12;100.00;97916.44;136426;1277;22552;-80
2023/10/14 07:42:54;;;;;;;;;;;;;;;20.23;100.00;97916.14;136971;1277;25233;-80
2023/10/14 07:45:56;;;;;;;;;;;;;;;20.32;100.00;97922.46;136617;1277;22580;-80
2023/10/14 07:48:59;;;;;;;;;;;;;;;20.41;100.00;97932.20;136436;1277;22497;-80
2023/10/14 07:52:01;;;;;;;;;;;;;;;20.50;100.00;97960.80;136741;1277;25318;-81
2023/10/14 07:55:02;;;;;;;;;;;;;;;20.54;100.00;97957.98;137033;1277;22489;-79
2023/10/14 07:58:08;;;;;;;;;;;;;;;20.60;100.00;97958.27;136477;1277;22927;-79
2023/10/14 08:01:09;;;;;;;;;;;;;;;20.65;100.00;97957.16;136836;1277;23050;-79
2023/10/14 08:04:14;;;;;;;;;;;;;;;20.76;100.00;97949.10;137333;1277;22791;-80
2023/10/14 08:07:15;;;;;;;;;;;;;;;20.83;100.00;97953.95;136565;1277;22526;-78
2023/10/14 08:10:21;;;;;;;;;;;;;;;20.91;100.00;97948.98;137007;1277;23259;-79
2023/10/14 08:13:22;;;;;;;;;;;;;;;21.04;100.00;97948.95;137290;1277;22409;-79
2023/10/14 08:16:23;;;;;;;;;;;;;;;21.15;100.00;97952.86;136949;1275;22491;-79
2023/10/14 08:19:26;;;;;;;;;;;;;;;21.29;100.00;97954.56;137229;1275;22342;-79
2023/10/14 08:22:28;;;;;;;;;;;;;;;21.35;100.00;97951.66;137222;1277;22333;-79
2023/10/14 08:25:30;;;;;;;;;;;;;;;21.44;100.00;97948.95;137134;1277;22346;-79
2023/10/14 08:28:32;;;;;;;;;;;;;;;21.55;100.00;97941.50;137138;1277;22301;-79
2023/10/14 08:31:33;;;;;;;;;;;;;;;21.66;100.00;97937.48;137101;1277;22510;-79
2023/10/14 08:34:36;;;;;;;;;;;;;;;21.78;100.00;97935.84;136851;1277;23192;-80
2023/10/14 08:37:37;;;;;;;;;;;;;;;21.89;100.00;97935.68;136545;1277;22521;-80
2023/10/14 08:40:39;;;;;;;;;;;;;;;21.93;100.00;97935.13;136312;1277;22585;-79
2023/10/14 08:43:42;;;;;;;;;;;;;;;21.98;93.56;97935.23;137142;1277;22493;-79
2023/10/14 08:46:43;;;;;;;;;;;;;;;22.03;66.08;97929.35;136401;1277;23021;-79
2023/10/14 08:49:44;;;;;;;;;;;;;;;22.05;64.65;97932.78;136853;1277;22494;-80
2023/10/14 08:52:47;;;;;;;;;;;;;;;22.07;66.05;97930.92;137162;1272;22520;-78
2023/10/14 08:55:49;;;;;;;;;;;;;;;22.13;64.85;97933.84;136529;1277;190440;-80
2023/10/14 08:58:50;;;;;;;;;;;;;;;22.17;64.68;97931.13;137182;1277;22344;-80
2023/10/14 09:01:52;;;;;;;;;;;;;;;22.26;64.57;97934.42;136748;1277;22560;-81
2023/10/14 09:04:53;;;;;;;;;;;;;;;22.31;63.68;97935.23;136972;1277;22489;-79
2023/10/14 09:07:54;;;;;;;;;;;;;;;22.40;64.09;97932.67;136586;1277;22460;-81
2023/10/14 09:10:55;;;;;;;;;;;;;;;22.50;64.23;97930.55;136440;1277;22539;-82
2023/10/14 09:13:57;;;;;;;;;;;;;;;22.59;64.43;97924.81;137169;1277;22511;-81
2023/10/14 09:17:03;;;;;;;;;;;;;;;22.74;64.98;97928.10;137195;1277;22922;-81
2023/10/14 09:20:04;;;;;;;;;;;;;;;22.90;63.92;97926.60;136682;1277;22569;-81
2023/10/14 09:23:05;;;;;;;;;;;;;;;23.03;63.61;97929.98;137141;1277;22514;-81
2023/10/14 09:26:06;;;;;;;;;;;;;;;23.03;61.48;97937.11;136788;1277;22531;-81
2023/10/14 09:29:09;;;;;;;;;;;;;;;23.01;62.59;97936.33;137217;1277;22768;-78
2023/10/14 09:32:10;;;;;;;;;;;;;;;23.09;62.98;97937.14;137097;1277;22332;-81
2023/10/14 09:35:11;;;;;;;;;;;;;;;23.21;62.45;97937.75;137121;1277;22796;-81
2023/10/14 09:38:14;;;;;;;;;;;;;;;23.24;61.69;97937.94;137095;1277;22363;-81
2023/10/14 09:41:15;;;;;;;;;;;;;;;23.30;62.23;97937.23;137162;1277;22327;-81
2023/10/14 09:44:17;;;;;;;;;;;;;;;23.40;62.67;97938.48;137172;1277;22350;-81
2023/10/14 09:47:22;;;;;;;;;;;;;;;23.51;61.73;97930.60;136615;1277;22978;-81
2023/10/14 09:50:23;;;;;;;;;;;;;;;23.56;60.97;97930.02;136498;1277;23147;-81
2023/10/14 09:53:27;;;;;;;;;;;;;;;23.63;60.48;97933.40;137179;1277;22528;-81
2023/10/14 09:56:28;;;;;;;;;;;;;;;23.79;61.34;97933.34;137206;1277;23081;-82
2023/10/14 09:59:29;;;;;;;;;;;;;;;24.02;59.84;97927.08;137172;1277;22368;-82
2023/10/14 10:02:32;;;;;;;;;;;;;;;24.22;59.03;97919.34;137046;1277;22511;-82
2023/10/14 10:05:38;;;;;;;;;;;;;;;24.49;59.56;97911.58;136837;1277;22489;-82
2023/10/14 10:08:40;;;;;;;;;;;;;;;24.61;58.88;97909.78;137177;1277;22362;-82
2023/10/14 10:11:41;;;;;;;;;;;;;;;24.51;57.65;97909.89;137011;1277;22560;-81
2023/10/14 10:14:42;;;;;;;;;;;;;;;24.28;57.92;97917.29;136989;1277;22493;-81
2023/10/14 10:17:44;;;;;;;;;;;;;;;24.09;57.30;97912.12;137123;1277;22803;-82
2023/10/14 10:20:45;;;;;;;;;;;;;;;23.98;58.28;97910.41;137141;1277;22693;-81
2023/10/14 10:23:47;;;;;;;;;;;;;;;23.86;58.48;97910.61;137137;1277;22352;-81
2023/10/14 10:26:48;;;;;;;;;;;;;;;23.83;58.56;97908.96;137175;1277;22474;-82
2023/10/14 10:29:49;;;;;;;;;;;;;;;23.89;58.48;97906.35;137163;1277;22328;-81
2023/10/14 10:32:50;;;;;;;;;;;;;;;24.05;57.60;97900.43;137145;1277;22339;-82
2023/10/14 10:35:52;;;;;;;;;;;;;;;24.07;57.54;97894.09;137140;1277;22355;-82
2023/10/14 10:38:54;;;;;;;;;;;;;;;24.21;57.10;97905.39;137070;1277;22565;-82
2023/10/14 10:41:55;;;;;;;;;;;;;;;24.41;56.96;97901.41;137080;1277;22518;-82
2023/10/14 10:44:56;;;;;;;;;;;;;;;24.61;56.78;97895.94;136725;1277;22521;-82
2023/10/14 10:47:57;;;;;;;;;;;;;;;24.66;56.64;97891.39;136865;1277;22500;-82
2023/10/14 10:50:58;;;;;;;;;;;;;;;24.73;56.02;97881.13;137238;1277;22352;-81
2023/10/14 10:54:00;;;;;;;;;;;;;;;24.73;56.17;97888.95;137228;1277;22364;-80
2023/10/14 10:57:02;;;;;;;;;;;;;;;24.60;55.80;97892.45;136878;1277;22516;-81
2023/10/14 11:00:09;;;;;;;;;;;;;;;24.45;56.55;97891.38;137224;1277;22813;-82
2023/10/14 11:03:13;;;;;;;;;;;;;;;24.43;56.71;97891.16;137218;1277;22359;-81
2023/10/14 11:06:17;;;;;;;;;;;;;;;24.32;55.67;97882.73;136922;1277;22528;-82
2023/10/14 11:09:18;;;;;;;;;;;;;;;24.14;55.68;97886.58;136800;1277;22551;-83
2023/10/14 11:12:20;;;;;;;;;;;;;;;24.02;55.95;97886.56;137210;1277;22504;-82
2023/10/14 11:15:23;;;;;;;;;;;;;;;24.00;56.72;97889.86;136553;1277;22532;-83
2023/10/14 11:18:24;;;;;;;;;;;;;;;23.99;56.67;97890.31;136710;1274;22539;-83
2023/10/14 11:21:27;;;;;;;;;;;;;;;23.93;56.69;97891.52;137014;1277;22524;-82
2023/10/14 11:24:30;;;;;;;;;;;;;;;23.85;56.24;97885.25;136807;1277;22516;-83
2023/10/14 11:27:31;;;;;;;;;;;;;;;23.79;57.03;97883.44;136574;1277;22495;-82
2023/10/14 11:30:32;;;;;;;;;;;;;;;23.67;56.91;97884.83;136879;1277;22546;-83
2023/10/14 11:33:33;;;;;;;;;;;;;;;23.63;57.46;97888.64;136802;1277;22502;-83
2023/10/14 11:36:37;;;;;;;;;;;;;;;23.72;57.41;97893.64;136441;1277;22574;-83
2023/10/14 11:39:38;;;;;;;;;;;;;;;23.67;56.96;97890.52;136589;1277;22570;-82
2023/10/14 11:42:40;;;;;;;;;;;;;;;23.59;57.50;97890.10;136962;1277;22550;-82
2023/10/14 11:45:43;;;;;;;;;;;;;;;23.50;58.13;97887.35;136558;1277;22539;-82
2023/10/14 11:48:44;;;;;;;;;;;;;;;23.41;58.24;97890.69;136576;1277;22591;-82
2023/10/14 11:51:46;;;;;;;;;;;;;;;23.31;58.56;97894.60;137163;1278;22581;-82
2023/10/14 11:54:48;;;;;;;;;;;;;;;23.19;58.81;97893.45;136548;1277;22522;-81
2023/10/14 11:57:49;;;;;;;;;;;;;;;23.10;58.96;97892.17;136421;1277;22527;-80
2023/10/14 12:00:50;;;;;;;;;;;;;;;23.06;59.27;97892.20;137047;1277;22592;-81
2023/10/14 12:03:52;;;;;;;;;;;;;;;23.03;59.67;97898.21;136675;1277;22507;-82
2023/10/14 12:06:53;;;;;;;;;;;;;;;23.05;59.69;97901.48;136462;1278;22550;-81
2023/10/14 12:09:57;;;;;;;;;;;;;;;23.09;59.73;97890.10;136783;1277;25385;-82
2023/10/14 12:12:59;;;;;;;;;;;;;;;23.07;59.61;97892.16;136841;1277;22531;-81
2023/10/14 12:16:05;;;;;;;;;;;;;;;23.10;59.65;97893.92;136596;1277;22506;-82
2023/10/14 12:19:11;;;;;;;;;;;;;;;23.18;59.93;97888.88;136547;1277;25456;-80
2023/10/14 12:22:12;;;;;;;;;;;;;;;23.17;59.31;97891.09;137310;1278;22367;-82
2023/10/14 12:25:14;;;;;;;;;;;;;;;23.09;60.00;97893.11;136552;1277;22974;-81
2023/10/14 12:28:17;;;;;;;;;;;;;;;23.02;59.98;97891.02;136529;1277;22856;-83
2023/10/14 12:31:25;;;;;;;;;;;;;;;22.94;60.24;97893.25;136876;1277;22529;-83
2023/10/14 12:34:28;;;;;;;;;;;;;;;22.87;60.68;97891.79;136782;1278;22509;-82
2023/10/14 12:37:30;;;;;;;;;;;;;;;22.83;60.70;97885.98;136533;1277;22509;-82
2023/10/14 12:40:33;;;;;;;;;;;;;;;22.81;60.50;97887.84;136675;1278;22525;-83
2023/10/14 12:43:37;;;;;;;;;;;;;;;22.74;60.39;97890.33;136940;1278;22542;-82
2023/10/14 12:46:40;;;;;;;;;;;;;;;22.68;60.30;97887.99;136502;1277;22525;-83
2023/10/14 12:49:41;;;;;;;;;;;;;;;22.59;60.23;97879.77;136550;1278;22581;-82
2023/10/14 12:52:45;;;;;;;;;;;;;;;22.56;60.40;97879.55;136997;1277;22534;-81
2023/10/14 12:55:46;;;;;;;;;;;;;;;22.58;60.88;97882.86;136550;1277;23005;-82
2023/10/14 12:58:48;;;;;;;;;;;;;;;22.56;60.84;97881.89;136563;1277;22539;-82
2023/10/14 13:01:58;;;;;;;;;;;;;;;22.51;60.66;97887.27;136941;1276;22534;-83
2023/10/14 13:05:02;;;;;;;;;;;;;;;22.46;60.71;97885.54;136755;1278;22750;-83
2023/10/14 13:08:03;;;;;;;;;;;;;;;22.41;60.93;97883.50;136499;1277;22547;-83
2023/10/14 13:11:05;;;;;;;;;;;;;;;22.33;61.50;97885.69;136735;1277;24963;-83
2023/10/14 13:14:06;;;;;;;;;;;;;;;22.29;61.60;97893.38;136955;1277;23020;-82
2023/10/14 13:17:07;;;;;;;;;;;;;;;22.23;61.28;97889.89;136534;1275;22518;-82
2023/10/14 13:20:08;;;;;;;;;;;;;;;22.20;61.40;97887.95;136541;1277;25221;-85
2023/10/14 13:23:14;;;;;;;;;;;;;;;22.15;60.82;97888.02;136995;1277;22549;-82
2023/10/14 13:26:16;;;;;;;;;;;;;;;22.11;61.26;97885.38;136547;1278;25255;-81
2023/10/14 13:29:17;;;;;;;;;;;;;;;22.13;61.48;97887.58;136445;1277;23004;-82
2023/10/14 13:32:24;;;;;;;;;;;;;;;22.20;61.50;97885.80;137094;1278;22573;-82
2023/10/14 13:35:25;;;;;;;;;;;;;;;22.26;61.15;97886.75;136570;1277;22497;-83
2023/10/14 13:38:26;;;;;;;;;;;;;;;22.32;61.22;97885.39;136548;1277;22508;-83
2023/10/14 13:41:27;;;;;;;;;;;;;;;22.40;60.83;97876.98;136886;1277;25463;-83
2023/10/14 13:44:28;;;;;;;;;;;;;;;22.41;60.28;97877.82;136687;1278;25230;-83
2023/10/14 13:47:29;;;;;;;;;;;;;;;22.49;60.60;97875.84;136570;1277;22497;-82
2023/10/14 13:50:31;;;;;;;;;;;;;;;22.63;60.40;97874.79;136729;1277;22537;-84
2023/10/14 13:53:32;;;;;;;;;;;;;;;22.77;60.24;97876.88;136978;1277;22584;-83
2023/10/14 13:56:33;;;;;;;;;;;;;;;22.76;60.50;97873.55;136633;1278;22494;-84
2023/10/14 13:59:34;;;;;;;;;;;;;;;22.65;60.86;97878.95;136619;1278;22514;-83
2023/10/14 14:02:35;;;;;;;;;;;;;;;22.48;60.95;97879.09;137120;1277;22995;-82
2023/10/14 14:05:39;;;;;;;;;;;;;;;22.34;61.22;97885.84;136580;1277;22495;-82
2023/10/14 14:08:40;;;;;;;;;;;;;;;22.23;61.40;97890.28;136584;1278;22576;-81
2023/10/14 14:11:42;;;;;;;;;;;;;;;22.16;62.02;97887.80;137064;1277;22561;-82
2023/10/14 14:14:43;;;;;;;;;;;;;;;22.06;62.47;97885.84;136558;1277;22535;-81
2023/10/14 14:17:44;;;;;;;;;;;;;;;21.92;62.67;97883.81;136483;1277;22538;-79
2023/10/14 14:20:45;;;;;;;;;;;;;;;21.80;63.05;97876.42;137210;1276;22516;-81
2023/10/14 14:23:46;;;;;;;;;;;;;;;21.71;63.49;97875.46;136563;1278;22857;-80
2023/10/14 14:26:48;;;;;;;;;;;;;;;21.62;63.90;97875.34;136480;1278;22510;-81
2023/10/14 14:29:51;;;;;;;;;;;;;;;21.49;63.98;97874.16;136958;1277;22541;-80
2023/10/14 14:32:53;;;;;;;;;;;;;;;21.37;64.47;97877.77;137038;1274;22596;-82
2023/10/14 14:35:54;;;;;;;;;;;;;;;21.24;64.78;97880.63;136586;1277;22549;-82
2023/10/14 14:38:57;;;;;;;;;;;;;;;21.14;65.50;97882.67;136508;1278;22534;-83
2023/10/14 14:42:00;;;;;;;;;;;;;;;21.05;65.82;97886.82;137073;1277;23036;-82
2023/10/14 14:45:06;;;;;;;;;;;;;;;20.98;66.27;97884.80;136450;1277;22541;-82
2023/10/14 14:48:07;;;;;;;;;;;;;;;20.94;66.58;97886.98;136606;1277;22529;-82
2023/10/14 14:51:08;;;;;;;;;;;;;;;20.87;66.78;97887.46;137087;1277;22525;-83
2023/10/14 14:54:10;;;;;;;;;;;;;;;20.79;67.18;97884.61;136579;1277;22567;-82
2023/10/14 14:57:11;;;;;;;;;;;;;;;20.71;67.61;97883.72;136560;1277;22520;-83
2023/10/14 15:00:14;;;;;;;;;;;;;;;20.62;68.06;97888.53;136978;1277;22521;-83
2023/10/14 15:03:15;;;;;;;;;;;;;;;20.55;68.54;97887.60;136851;1277;22547;-83
2023/10/14 15:06:16;;;;;;;;;;;;;;;20.46;69.27;97928.48;136650;1277;22500;-83
2023/10/14 15:09:20;;;;;;;;;;;;;;;20.22;68.84;97959.10;136926;1278;22557;-83
2023/10/14 15:12:22;;;;;;;;;;;;;;;19.59;68.16;97983.81;137062;1277;22850;-82
2023/10/14 15:15:24;;;;;;;;;;;;;;;18.85;68.93;97995.64;136441;1277;22551;-81
2023/10/14 15:18:25;;;;;;;;;;;;;;;18.34;70.31;97998.58;136515;1278;22601;-81
2023/10/14 15:21:26;;;;;;;;;;;;;;;18.00;71.68;97988.36;137124;1277;22551;-82
2023/10/14 15:24:29;;;;;;;;;;;;;;;17.77;72.84;97992.27;136555;1277;22591;-82
2023/10/14 15:27:30;;;;;;;;;;;;;;;17.57;74.26;98013.06;136548;1278;22530;-82
2023/10/14 15:30:31;;;;;;;;;;;;;;;17.39;75.07;98011.81;137058;1273;22521;-82
2023/10/14 15:33:32;;;;;;;;;;;;;;;17.25;75.82;98018.52;136586;1277;22546;-82
2023/10/14 15:36:33;;;;;;;;;;;;;;;17.11;78.81;98029.98;136528;1277;22550;-82
2023/10/14 15:39:34;;;;;;;;;;;;;;;16.90;81.60;98038.44;136913;1277;22514;-82